Dobrodošli na spletni strani vremenske postaje Senovo. Vse informacije so informativnega značaja, saj vremenska postaja ni del državne mreže meteoroloških postaj. OBVESTILO: Letni količini padavin navedeni na spletni strani je potrebno prišteti 98,1 mm, zaradi izgube podatkov.


Posebna pozornost v zvezi z vremenskimi dogajanji ni potrebna.    Posebna pozornost v zvezi z vremenskimi dogajanji ni potrebna.

Pogled proti Armezu več informacij Pogled proti Armezu


Lisca več informacij Lisca


Radar strel več informacij blitzortung!


Radar padavin več informacij rain snow radar


Obiščite še:

Template documentation
and downloads

And another site



Weather Underground, zgodovina - Tekstovno

Dnevni povzetek za Avgust 7, 2017 Enote:  Angleško    Metrično   Obe
« Predhodni Dan
Naslednji Dan »
Dnevni Tedenski Mesečni Letni Po meri
  Višja: Nižja: Povprečje:
Temperatura: 81.7 °F 61 °F 69.4 °F
Točka rosišča: 62.6 °F 52.3 °F 57.2 °F
Vlažnost: 92 % 41 % 68 %
Hitrost vetra: 6.7 mph 0 mph 2.1 mph
Sunki vetra: 13 mph - -
Veter:- - SE
Zračni tlak: 30.2 in 30.1 in -
Padavine: 0.32 in    
Historical Graphs
 
 
Tabelarni podarki za Avgust 7, 2017
Čas Temperatura Točka rosišča Zračni tlak Veter Hitrost vetra Sunki vetra Vlažnost Intenziteta padavin (urna)
00:02 64.8 °F 61.9 °F 30.2 in SSW 2.4 mph 4.3 mph 90 % 0.09 in
00:07 64.6 °F 61.5 °F 30.2 in South 2 mph 4.3 mph 90 % 0.1 in
00:12 64.6 °F 61.5 °F 30.2 in South 1.1 mph 3.4 mph 90 % 0.1 in
00:17 64.4 °F 61.7 °F 30.2 in NW 0.1 mph 1.6 mph 91 % 0.07 in
00:22 64.4 °F 61.7 °F 30.2 in West 0.4 mph 3.1 mph 91 % 0.07 in
00:27 64.4 °F 61.7 °F 30.2 in NW 1.3 mph 3.4 mph 91 % 0.08 in
00:32 64.4 °F 62.1 °F 30.2 in WNW 1.6 mph 3.4 mph 92 % 0.1 in
00:37 64.4 °F 62.1 °F 30.2 in West 0.7 mph 2.5 mph 92 % 0.13 in
00:42 64.4 °F 62.1 °F 30.2 in Calm   1.1 mph 92 % 0.15 in
00:47 64.4 °F 62.1 °F 30.2 in ESE 0.3 mph 2 mph 92 % 0.18 in
00:52 64.4 °F 62.1 °F 30.2 in ESE 1.7 mph 6 mph 92 % 0.2 in
00:57 64.2 °F 61.9 °F 30.2 in ESE 3.3 mph 6.3 mph 92 % 0.23 in
01:02 63.9 °F 61.5 °F 30.2 in East 3.6 mph 6.3 mph 92 % 0.26 in
01:07 63.5 °F 61.2 °F 30.1 in East 3.4 mph 10.1 mph 92 % 0.27 in
01:12 63.3 °F 60.6 °F 30.1 in ENE 2.8 mph 10.1 mph 91 % 0.28 in
01:17 63 °F 60.3 °F 30.1 in East 4.1 mph 10.3 mph 91 % 0.28 in
01:22 62.8 °F 60.1 °F 30.1 in East 5.9 mph 10.3 mph 91 % 0.27 in
01:27 62.8 °F 60.1 °F 30.1 in ESE 6.7 mph 13 mph 91 % 0.25 in
01:32 62.6 °F 59.5 °F 30.1 in ESE 6.5 mph 13 mph 90 % 0.24 in
01:37 62.6 °F 59.5 °F 30.1 in ESE 5.9 mph 13 mph 90 % 0.21 in
01:42 62.4 °F 59.7 °F 30.1 in ENE 5 mph 8.7 mph 91 % 0.19 in
01:52 62.2 °F 59 °F 30.2 in NNW 2.2 mph 5.8 mph 89 % 0.12 in
01:57 62.1 °F 58.8 °F 30.2 in East 1.6 mph 5.8 mph 89 % 0.09 in
02:03 61.9 °F 58.6 °F 30.2 in ESE 2 mph 5.8 mph 89 % 0.06 in
02:08 61.9 °F 58.3 °F 30.1 in ENE 2.4 mph 5.8 mph 88 % 0.03 in
02:13 61.9 °F 58.3 °F 30.1 in East 2.4 mph 4.3 mph 88 % 0.01 in
02:18 62.1 °F 58.1 °F 30.1 in East 3.6 mph 6.3 mph 87 % 0 in
02:23 62.1 °F 58.1 °F 30.2 in ESE 4.3 mph 7.8 mph 87 % 0 in
02:28 61.9 °F 57.9 °F 30.2 in ESE 3.8 mph 7.8 mph 87 % 0 in
02:33 62.1 °F 57.6 °F 30.2 in ENE 3.8 mph 8.5 mph 85 % 0 in
02:38 62.2 °F 57.7 °F 30.2 in ENE 4.6 mph 10.7 mph 85 % 0 in
02:43 62.2 °F 57.4 °F 30.2 in ENE 4.6 mph 10.7 mph 84 % 0 in
02:48 62.2 °F 57 °F 30.2 in ENE 2.9 mph 10.1 mph 83 % 0 in
02:53 62.2 °F 57 °F 30.2 in ESE 2 mph 5.6 mph 83 % 0 in
02:58 62.4 °F 56.8 °F 30.2 in ESE 3.3 mph 8.5 mph 82 % 0 in
03:03 62.4 °F 56.8 °F 30.2 in East 3.2 mph 8.5 mph 82 % 0 in
03:08 62.6 °F 56.7 °F 30.1 in East 3.1 mph 7.6 mph 81 % 0 in
03:13 62.8 °F 56.5 °F 30.1 in East 3.2 mph 7.6 mph 80 % 0 in
03:18 62.8 °F 56.1 °F 30.1 in East 2.9 mph 7.4 mph 79 % 0 in
03:23 62.8 °F 55.8 °F 30.1 in ENE 2.9 mph 7.4 mph 78 % 0 in
03:28 63 °F 55.9 °F 30.1 in SE 2.9 mph 6 mph 78 % 0 in
03:33 63 °F 55.9 °F 30.1 in SE 2.9 mph 7.8 mph 78 % 0 in
03:38 63 °F 55.9 °F 30.1 in East 3.5 mph 8.1 mph 78 % 0 in
03:43 62.6 °F 56.3 °F 30.1 in ESE 2.9 mph 8.1 mph 80 % 0 in
03:48 62.8 °F 56.1 °F 30.1 in ESE 1.8 mph 6.3 mph 79 % 0 in
03:53 62.8 °F 55.8 °F 30.1 in SE 2.3 mph 6.3 mph 78 % 0 in
03:58 62.8 °F 55.8 °F 30.1 in ESE 2.4 mph 6.7 mph 78 % 0 in
04:03 62.8 °F 56.1 °F 30.1 in SE 2.9 mph 6.7 mph 79 % 0 in
04:08 62.8 °F 56.1 °F 30.1 in SSE 3.2 mph 8.5 mph 79 % 0 in
04:13 62.8 °F 56.1 °F 30.1 in ESE 2.7 mph 8.5 mph 79 % 0 in
04:15 63 °F 56.3 °F 30.1 in ESE 3.3 mph 8.5 mph 79 % 0 in
04:20 63 °F 56.3 °F 30.1 in SE 3.7 mph 8.1 mph 79 % 0 in
04:25 63 °F 56.7 °F 30.1 in SSE 2.7 mph 8.1 mph 80 % 0 in
04:30 62.8 °F 56.5 °F 30.1 in SSE 2 mph 6.5 mph 80 % 0 in
04:35 62.6 °F 56.7 °F 30.1 in South 2.8 mph 4.3 mph 81 % 0 in
04:40 62.4 °F 56.8 °F 30.1 in SSW 2.1 mph 3.4 mph 82 % 0 in
04:45 62.2 °F 56.7 °F 30.1 in SW 1.3 mph 3.6 mph 82 % 0 in
04:50 62.1 °F 56.8 °F 30.1 in ESE 0.9 mph 3.6 mph 83 % 0 in
04:52 62.1 °F 56.8 °F 30.1 in North 0.5 mph 2.5 mph 83 % 0 in
04:57 62.1 °F 56.8 °F 30.1 in SW 0.5 mph 2.9 mph 83 % 0 in
05:02 61.9 °F 57 °F 30.1 in SW 1.1 mph 2.9 mph 84 % 0 in
05:07 61.9 °F 57 °F 30.1 in WSW 1.2 mph 2.7 mph 84 % 0 in
05:12 61.7 °F 56.8 °F 30.1 in West 1.1 mph 3.4 mph 84 % 0 in
05:17 61.7 °F 57 °F 30.1 in WNW 0.8 mph 3.4 mph 85 % 0 in
05:22 61.5 °F 57 °F 30.1 in West 0.4 mph 2.9 mph 85 % 0 in
05:27 61.5 °F 57.4 °F 30.1 in Calm     86 % 0 in
05:31 61.5 °F 57.4 °F 30.1 in Calm     86 % 0 in
05:36 61.5 °F 57.6 °F 30.1 in Calm     87 % 0 in
05:41 61.3 °F 57.4 °F 30.1 in SSW 0.1 mph 2.2 mph 87 % 0 in
05:46 61.3 °F 57.4 °F 30.1 in SSW 0.3 mph 2.2 mph 87 % 0 in
05:51 61.3 °F 57.7 °F 30.1 in North 0.1 mph   88 % 0 in
05:56 61.3 °F 57.7 °F 30.1 in Calm     88 % 0 in
06:01 61.3 °F 57.7 °F 30.1 in Calm     88 % 0 in
06:06 61.2 °F 57.9 °F 30.2 in Calm     89 % 0 in
06:11 61.2 °F 57.9 °F 30.2 in Calm     89 % 0 in
06:16 61.2 °F 57.9 °F 30.2 in Calm     89 % 0 in
06:21 61.2 °F 57.9 °F 30.2 in Calm     89 % 0 in
06:26 61.2 °F 58.3 °F 30.2 in Calm   1.6 mph 90 % 0 in
06:31 61 °F 57.9 °F 30.2 in NE 0.3 mph 2 mph 90 % 0 in
06:36 61.2 °F 58.3 °F 30.2 in NE 0.3 mph 2 mph 90 % 0 in
06:41 61.2 °F 58.3 °F 30.2 in Calm     90 % 0 in
06:46 61.3 °F 58.5 °F 30.2 in Calm     90 % 0 in
06:51 61.3 °F 58.5 °F 30.2 in Calm     90 % 0 in
06:56 61.5 °F 58.6 °F 30.2 in Calm     90 % 0 in
07:01 61.5 °F 58.6 °F 30.2 in Calm     90 % 0 in
07:06 61.7 °F 58.6 °F 30.1 in Calm     90 % 0 in
07:11 61.7 °F 58.6 °F 30.1 in Calm     90 % 0 in
07:16 61.9 °F 58.8 °F 30.1 in Calm     90 % 0 in
07:21 62.1 °F 59.2 °F 30.2 in Calm     90 % 0 in
07:23 62.1 °F 59.2 °F 30.2 in Calm     90 % 0 in
07:28 62.2 °F 59.4 °F 30.2 in Calm     90 % 0 in
07:38 62.6 °F 59.5 °F 30.1 in Calm     90 % 0 in
07:43 62.8 °F 59.7 °F 30.1 in Calm     90 % 0 in
07:48 63 °F 60.1 °F 30.1 in Calm     90 % 0 in
07:53 63.1 °F 59.7 °F 30.2 in Calm     89 % 0 in
07:58 63.5 °F 60.3 °F 30.2 in Calm   1.3 mph 89 % 0 in
08:03 63.9 °F 60.6 °F 30.2 in SSW 1 mph 2.7 mph 89 % 0 in
08:08 64 °F 60.4 °F 30.2 in SSW 1.6 mph 3.1 mph 88 % 0 in
08:13 64.4 °F 60.4 °F 30.2 in South 1.5 mph 3.1 mph 87 % 0 in
08:18 64.6 °F 60.6 °F 30.2 in SSW 2 mph 3.8 mph 87 % 0 in
08:23 64.9 °F 60.6 °F 30.2 in SSW 2.3 mph 3.8 mph 86 % 0 in
08:28 65.1 °F 60.4 °F 30.2 in SSW 2.5 mph 3.4 mph 85 % 0 in
08:33 65.3 °F 60.3 °F 30.2 in SSW 2.3 mph 3.6 mph 84 % 0 in
08:38 65.7 °F 60.4 °F 30.2 in SW 2 mph 3.6 mph 83 % 0 in
08:43 66 °F 60.6 °F 30.2 in WSW 1.9 mph 3.6 mph 83 % 0 in
08:48 66.6 °F 61 °F 30.2 in WSW 2 mph 3.6 mph 82 % 0 in
08:53 67.1 °F 61.2 °F 30.2 in SW 2.2 mph 3.6 mph 81 % 0 in
08:54 67.3 °F 61.2 °F 30.2 in SW 2.3 mph 3.6 mph 81 % 0 in
08:59 67.8 °F 61.9 °F 30.2 in SSW 2.3 mph 4 mph 81 % 0 in
09:04 68.4 °F 61.9 °F 30.2 in SSW 2.6 mph 4.9 mph 80 % 0 in
09:09 68.9 °F 62.1 °F 30.2 in SSW 2.3 mph 4.9 mph 79 % 0 in
09:14 69.4 °F 62.6 °F 30.2 in SSW 1.6 mph 3.4 mph 79 % 0 in
09:19 69.6 °F 62.1 °F 30.1 in SSW 1.5 mph 3.4 mph 77 % 0 in
09:24 69.8 °F 61.5 °F 30.1 in SW 1.2 mph 3.6 mph 75 % 0 in
09:26 70 °F 62.1 °F 30.1 in SSW 1.3 mph 3.6 mph 76 % 0 in
09:32 70.3 °F 61.7 °F 30.1 in SSW 1 mph 3.6 mph 74 % 0 in
09:37 70.9 °F 61.3 °F 30.2 in ESE 1.3 mph 2.9 mph 72 % 0 in
09:42 71.4 °F 61.5 °F 30.2 in ESE 1.7 mph 3.8 mph 71 % 0 in
09:47 71.6 °F 61.3 °F 30.2 in South 1.7 mph 3.8 mph 70 % 0 in
09:52 72 °F 61.5 °F 30.2 in South 1.7 mph 4.3 mph 70 % 0 in
09:57 72.3 °F 61.2 °F 30.2 in SSE 2.3 mph 5.4 mph 68 % 0 in
10:02 72.7 °F 59.4 °F 30.2 in ESE 3.5 mph 12.3 mph 63 % 0 in
10:07 73 °F 58.8 °F 30.2 in East 3.8 mph 12.3 mph 61 % 0 in
10:12 73.6 °F 57.9 °F 30.2 in East 4 mph 10.5 mph 58 % 0 in
10:17 73.6 °F 56.5 °F 30.2 in East 5.3 mph 10.5 mph 55 % 0.01 in
10:27 73.8 °F 56.7 °F 30.2 in East 5.1 mph 12.1 mph 55 % 0.01 in
10:32 73.8 °F 56.7 °F 30.2 in ENE 5.4 mph 12.1 mph 55 % 0.01 in
10:37 73.8 °F 57.6 °F 30.2 in ENE 4.3 mph 7.6 mph 57 % 0.01 in
10:38 73.8 °F 57 °F 30.2 in East 4 mph 7.4 mph 56 % 0.01 in
10:43 73.8 °F 57 °F 30.2 in East 2.7 mph 5.6 mph 56 % 0.01 in
10:48 73.4 °F 55.8 °F 30.2 in NNE 2.6 mph 7.6 mph 54 % 0.01 in
10:53 73.6 °F 56.5 °F 30.2 in NNE 3 mph 7.6 mph 55 % 0.01 in
10:58 74.3 °F 57 °F 30.2 in ENE 3.6 mph 7.8 mph 55 % 0.01 in
11:03 74.8 °F 57.6 °F 30.2 in East 4.4 mph 9.6 mph 55 % 0.01 in
11:08 75 °F 57.7 °F 30.2 in East 4.6 mph 9.6 mph 55 % 0.01 in
11:13 74.7 °F 56.5 °F 30.2 in ENE 5 mph 9.4 mph 53 % 0 in
11:18 74.5 °F 55.8 °F 30.2 in ENE 4.2 mph 7.6 mph 52 % 0 in
11:23 74.7 °F 55.9 °F 30.2 in ENE 3.4 mph 6.3 mph 52 % 0 in
11:28 74.8 °F 55.9 °F 30.2 in East 3.9 mph 10.7 mph 52 % 0 in
11:33 75.4 °F 56.5 °F 30.2 in East 4.5 mph 10.7 mph 52 % 0 in
11:38 75.7 °F 56.8 °F 30.1 in East 3.8 mph 7.8 mph 52 % 0 in
11:43 75.7 °F 55.8 °F 30.1 in East 3.1 mph 8.5 mph 50 % 0 in
11:48 75.9 °F 55.4 °F 30.1 in East 3.8 mph 9.8 mph 49 % 0 in
11:53 76.5 °F 56.5 °F 30.2 in East 4.5 mph 10.5 mph 50 % 0 in
11:58 76.6 °F 55.6 °F 30.2 in ESE 4.3 mph 10.5 mph 48 % 0 in
12:03 76.6 °F 55.6 °F 30.2 in East 4.4 mph 8.7 mph 48 % 0 in
12:08 76.6 °F 54.9 °F 30.2 in ENE 4.4 mph 8.7 mph 47 % 0 in
12:13 76.8 °F 55 °F 30.2 in ENE 3.8 mph 11 mph 47 % 0 in
12:18 77 °F 55.2 °F 30.2 in ENE 3.6 mph 11 mph 47 % 0 in
12:23 77 °F 54.7 °F 30.1 in ENE 3.6 mph 7.6 mph 46 % 0 in
12:28 77 °F 54.7 °F 30.1 in ENE 4.2 mph 10.1 mph 46 % 0 in
12:33 77.4 °F 55.6 °F 30.2 in NE 5.3 mph 10.1 mph 47 % 0 in
12:38 77.2 °F 54.9 °F 30.2 in East 4.1 mph 9.8 mph 46 % 0 in
12:43 77.4 °F 55 °F 30.2 in ESE 4.1 mph 7.4 mph 46 % 0 in
12:48 76.8 °F 54.5 °F 30.1 in East 3.7 mph 9.8 mph 46 % 0 in
12:53 77.2 °F 54.9 °F 30.1 in ENE 3.4 mph 9.8 mph 46 % 0 in
12:58 77 °F 54.7 °F 30.1 in ENE 3.9 mph 7.8 mph 46 % 0 in
13:03 76.6 °F 54.3 °F 30.1 in NE 4.6 mph 8.5 mph 46 % 0 in
13:08 77.4 °F 55 °F 30.1 in NE 3.9 mph 8.5 mph 46 % 0 in
13:09 77.4 °F 54.3 °F 30.1 in ENE 3.9 mph 7.4 mph 45 % 0 in
13:14 77.9 °F 54.9 °F 30.1 in East 3.5 mph 8.7 mph 45 % 0 in
13:19 78.3 °F 55.2 °F 30.1 in ESE 4.4 mph 8.7 mph 45 % 0 in
13:24 78.6 °F 54.9 °F 30.1 in ESE 4.9 mph 8.7 mph 44 % 0 in
13:29 77.7 °F 54.1 °F 30.1 in East 4.5 mph 7.6 mph 44 % 0 in
13:34 77.9 °F 54.9 °F 30.1 in ENE 4.2 mph 8.1 mph 45 % 0 in
13:39 78.4 °F 54.7 °F 30.1 in ENE 3.6 mph 8.1 mph 44 % 0 in
13:44 78.3 °F 54.7 °F 30.1 in ENE 2.9 mph 7.8 mph 44 % 0 in
13:49 78.3 °F 54.7 °F 30.1 in ENE 3 mph 7.8 mph 44 % 0 in
13:54 78.8 °F 55 °F 30.1 in ENE 3.9 mph 7.4 mph 44 % 0 in
13:59 78.1 °F 54.3 °F 30.1 in East 4.1 mph 6.5 mph 44 % 0 in
14:04 78.4 °F 55.2 °F 30.1 in ESE 3.9 mph 6.5 mph 45 % 0 in
14:09 79 °F 55.2 °F 30.1 in ESE 4.7 mph 9.6 mph 44 % 0 in
14:14 78.8 °F 54.3 °F 30.1 in East 5.1 mph 9.6 mph 43 % 0 in
14:19 79 °F 55.2 °F 30.1 in ENE 4.4 mph 7.8 mph 44 % 0 in
14:24 79 °F 55.2 °F 30.1 in NE 3.7 mph 6.9 mph 44 % 0 in
14:29 79.5 °F 55.8 °F 30.1 in East 3 mph 6.9 mph 44 % 0 in
14:34 79.5 °F 55 °F 30.1 in ESE 4 mph 10.7 mph 43 % 0 in
14:39 79.3 °F 54.9 °F 30.1 in East 4.1 mph 10.7 mph 43 % 0 in
14:44 79 °F 54.7 °F 30.1 in East 2.9 mph 6.7 mph 43 % 0 in
14:49 78.4 °F 54.7 °F 30.2 in ESE 3 mph 6.7 mph 44 % 0 in
14:55 78.4 °F 54.7 °F 30.2 in East 2.5 mph 5.8 mph 44 % 0 in
15:00 79 °F 55.2 °F 30.2 in East 1.9 mph 4.5 mph 44 % 0 in
15:05 78.6 °F 54.9 °F 30.1 in ENE 2.5 mph 6.5 mph 44 % 0 in
15:10 78.4 °F 54.1 °F 30.1 in ENE 2.9 mph 6.5 mph 43 % 0 in
15:15 79.2 °F 55.4 °F 30.1 in SE 2.8 mph 6.3 mph 44 % 0 in
15:20 79.7 °F 55.2 °F 30.2 in SE 3.6 mph 8.5 mph 43 % 0 in
15:25 79.7 °F 54.7 °F 30.2 in East 4.1 mph 9.6 mph 42 % 0 in
15:30 79.7 °F 55.2 °F 30.2 in ENE 3.9 mph 9.6 mph 43 % 0 in
15:36 79.9 °F 54.7 °F 30.1 in ENE 3.1 mph 8.9 mph 42 % 0 in
15:41 80.1 °F 55.6 °F 30.1 in ENE 3.4 mph 8.7 mph 43 % 0 in
15:46 80.1 °F 55.6 °F 30.1 in ENE 3.7 mph 8.7 mph 43 % 0 in
15:51 80.1 °F 54.9 °F 30.1 in NE 2.7 mph 7.6 mph 42 % 0 in
15:56 80.1 °F 54.9 °F 30.1 in NE 3.1 mph 7.6 mph 42 % 0 in
16:01 80.2 °F 55 °F 30.1 in ENE 3.1 mph 6 mph 42 % 0 in
16:06 80.4 °F 55.9 °F 30.1 in East 3.5 mph 9.8 mph 43 % 0 in
16:11 80.8 °F 55.6 °F 30.1 in East 4.6 mph 9.8 mph 42 % 0 in
16:16 81 °F 55.8 °F 30.1 in East 4 mph 8.7 mph 42 % 0 in
16:21 81 °F 55.8 °F 30.1 in ENE 3.1 mph 6.9 mph 42 % 0 in
16:26 81 °F 55.8 °F 30.1 in East 2.9 mph 6.9 mph 42 % 0 in
16:31 81.1 °F 55.2 °F 30.1 in SE 3 mph 6 mph 41 % 0 in
16:36 81.3 °F 55.4 °F 30.1 in SE 3.4 mph 7.4 mph 41 % 0 in
16:41 81.5 °F 55.6 °F 30.1 in ESE 3.2 mph 7.4 mph 41 % 0 in
16:46 81.7 °F 55.8 °F 30.1 in East 3.4 mph 9.2 mph 41 % 0 in
16:51 81.3 °F 55.4 °F 30.1 in East 3.9 mph 9.2 mph 41 % 0 in
16:56 81 °F 55 °F 30.1 in ENE 3.5 mph 7.4 mph 41 % 0 in
17:01 81.1 °F 55.2 °F 30.1 in ENE 3.4 mph 7.2 mph 41 % 0 in
17:06 81.1 °F 55.2 °F 30.1 in East 3.1 mph 6 mph 41 % 0 in
17:11 80.8 °F 54.9 °F 30.1 in ESE 2.9 mph 6 mph 41 % 0 in
17:16 80.8 °F 54.9 °F 30.1 in East 3.4 mph 7.4 mph 41 % 0 in
17:21 80.8 °F 54.9 °F 30.1 in East 3.8 mph 8.1 mph 41 % 0 in
17:26 80.8 °F 54.9 °F 30.1 in East 3.8 mph 8.1 mph 41 % 0 in
17:31 80.2 °F 55 °F 30.1 in ENE 3.7 mph 8.7 mph 42 % 0 in
17:36 79.3 °F 54.3 °F 30.1 in ENE 2.9 mph 8.7 mph 42 % 0 in
17:41 78.6 °F 53.6 °F 30.1 in East 2.2 mph 6.5 mph 42 % 0 in
17:46 78.8 °F 53.8 °F 30.1 in East 2.8 mph 6.5 mph 42 % 0 in
17:56 79.3 °F 54.9 °F 30.1 in ENE 1.9 mph 4.3 mph 43 % 0 in
18:01 79.3 °F 54.9 °F 30.1 in East 1.6 mph 4.3 mph 43 % 0 in
18:06 79.2 °F 54.1 °F 30.1 in East 1.9 mph 4.3 mph 42 % 0 in
18:11 78.8 °F 54.3 °F 30.1 in East 2 mph 5.4 mph 43 % 0 in
18:16 78.4 °F 54.1 °F 30.1 in East 2.1 mph 5.4 mph 43 % 0 in
18:21 77.9 °F 53.6 °F 30.1 in East 3.1 mph 7.8 mph 43 % 0 in
18:26 77.5 °F 53.2 °F 30.1 in East 3.2 mph 7.8 mph 43 % 0 in
18:31 77 °F 52.9 °F 30.1 in ENE 2.4 mph 6.5 mph 43 % 0 in
18:36 76.6 °F 53.1 °F 30.1 in East 1.7 mph 6.5 mph 44 % 0 in
18:41 76.5 °F 52.9 °F 30.1 in East 1.5 mph 4.7 mph 44 % 0 in
18:46 76.1 °F 52.5 °F 30.1 in East 1.4 mph 3.6 mph 44 % 0 in
18:51 75.9 °F 52.3 °F 30.1 in East 1.3 mph 4.3 mph 44 % 0 in
18:56 75.6 °F 52.7 °F 30.1 in East 0.8 mph 4.3 mph 45 % 0 in
19:02 75 °F 52.9 °F 30.1 in ENE 0.8 mph 3.8 mph 46 % 0 in
19:07 74.7 °F 53.1 °F 30.1 in NE 0.8 mph 3.8 mph 47 % 0 in
19:12 74.3 °F 53.2 °F 30.1 in NNE 0.5 mph 3.8 mph 48 % 0 in
19:17 73.8 °F 54 °F 30.1 in North 1 mph 3.8 mph 50 % 0 in
19:22 73.2 °F 55 °F 30.1 in NW 0.6 mph 2 mph 53 % 0 in
19:27 72.7 °F 54.7 °F 30.1 in NW 0.5 mph 2.5 mph 53 % 0 in
19:32 72 °F 54.9 °F 30.1 in NW 0.5 mph 2.5 mph 55 % 0 in
19:37 71.4 °F 55.9 °F 30.1 in NNW 0.2 mph 1.3 mph 58 % 0 in
19:42 70.9 °F 55.4 °F 30.1 in NW 0.2 mph 2.2 mph 58 % 0 in
19:47 70.2 °F 56.1 °F 30.1 in NNW 0.4 mph 2.2 mph 61 % 0 in
19:52 69.8 °F 55.8 °F 30.1 in NW 0.6 mph 3.4 mph 61 % 0 in
19:57 69.4 °F 55.9 °F 30.1 in NW 1.2 mph 3.4 mph 62 % 0 in
20:02 69.1 °F 56.5 °F 30.1 in NW 1.4 mph 3.1 mph 64 % 0 in
20:07 68.7 °F 55.9 °F 30.1 in NW 0.6 mph 2.9 mph 64 % 0 in
20:12 68.4 °F 56.1 °F 30.1 in NNW 0.2 mph 2.5 mph 65 % 0 in
20:17 68 °F 56.1 °F 30.1 in NNW 0.3 mph 2.9 mph 66 % 0 in
20:22 67.5 °F 56.5 °F 30.1 in NW 0.3 mph 2.9 mph 68 % 0 in
20:27 67.1 °F 56.1 °F 30.1 in NW 0.1 mph 2.2 mph 68 % 0 in
20:32 66.7 °F 56.7 °F 30.1 in Calm   1.1 mph 70 % 0 in
20:37 66.2 °F 56.1 °F 30.1 in NW 0.2 mph 2.7 mph 70 % 0 in
20:42 66 °F 56.3 °F 30.1 in NW 0.6 mph 2.7 mph 71 % 0 in
20:47 65.7 °F 56.5 °F 30.1 in NW 0.4 mph 2.7 mph 72 % 0 in
20:52 65.5 °F 56.1 °F 30.1 in NNW 0.2 mph 2.5 mph 72 % 0 in
20:57 65.3 °F 56.5 °F 30.1 in NNW 0.3 mph 2.5 mph 73 % 0 in
21:02 65.1 °F 56.1 °F 30.1 in NNW 0.1 mph 2.2 mph 73 % 0 in
21:07 64.8 °F 56.3 °F 30.1 in Calm   0.9 mph 74 % 0 in
21:12 64.8 °F 56.7 °F 30.1 in Calm   0.9 mph 75 % 0 in
21:17 64.4 °F 56.3 °F 30.1 in Calm   1.1 mph 75 % 0 in
21:22 64.4 °F 56.7 °F 30.1 in North 0.1 mph 1.3 mph 76 % 0 in
21:27 64.2 °F 57.2 °F 30.1 in North 0.1 mph 1.3 mph 78 % 0 in
21:32 64.2 °F 57.2 °F 30.1 in Calm     78 % 0 in
21:37 64 °F 57 °F 30.1 in Calm     78 % 0 in
21:42 64 °F 57 °F 30.1 in Calm     78 % 0 in
21:47 63.9 °F 57.2 °F 30.1 in Calm     79 % 0 in
21:52 63.9 °F 57.2 °F 30.1 in Calm     79 % 0 in
21:57 63.9 °F 57.6 °F 30.1 in Calm     80 % 0 in
22:02 63.9 °F 57.6 °F 30.1 in Calm     80 % 0 in
22:07 63.9 °F 57.2 °F 30.1 in Calm     79 % 0 in
22:12 64 °F 57.7 °F 30.1 in Calm     80 % 0 in
22:17 64 °F 57.7 °F 30.1 in Calm     80 % 0 in
22:22 64 °F 57.7 °F 30.1 in Calm     80 % 0 in
22:27 64.2 °F 57.9 °F 30.1 in Calm     80 % 0 in
22:32 64.2 °F 58.3 °F 30.1 in Calm     81 % 0 in
22:37 64.2 °F 57.9 °F 30.1 in Calm     80 % 0 in
22:42 64.2 °F 58.3 °F 30.1 in Calm     81 % 0 in
22:47 64.2 °F 58.3 °F 30.1 in Calm     81 % 0 in
22:52 64.2 °F 58.3 °F 30.1 in Calm     81 % 0 in
22:57 64.2 °F 58.3 °F 30.1 in Calm     81 % 0 in
23:02 64.4 °F 58.5 °F 30.1 in Calm     81 % 0 in
23:08 64.4 °F 58.5 °F 30.1 in Calm     81 % 0 in
23:13 64.4 °F 58.5 °F 30.1 in Calm     81 % 0 in
23:18 64.6 °F 58.6 °F 30.1 in Calm     81 % 0 in
23:23 64.8 °F 58.8 °F 30.1 in Calm     81 % 0 in
23:28 64.8 °F 59.2 °F 30.1 in Calm     82 % 0 in
23:33 64.9 °F 59 °F 30.1 in Calm     81 % 0 in
23:38 65.1 °F 59.5 °F 30.1 in Calm     82 % 0 in
23:43 65.1 °F 59.5 °F 30.1 in Calm     82 % 0 in
23:48 65.1 °F 59.5 °F 30.1 in Calm     82 % 0 in
23:53 65.3 °F 59.7 °F 30.1 in Calm     82 % 0 in
23:58 65.3 °F 59.4 °F 30.1 in Calm     81 % 0 in
Vremenska postaja Senovo
Podatki zbrani iz Weather Underground - 3 mb

Script developed by  Jim McMurry - jmcmurry@mwt.net Adapted for the template by  Wim van der Kuil - Leuven-Template.eu

Vremenski podatki so objavljeni na:

WeatherCloud

Weather Underground

AWEKAS

HAMweather, WeatherForYou, PWS Weather

MapView

Geostik

Slovenia weather network

Oprema, ki se uporablja:

Vremenski program
Cumulus

Cumulus